sensor_id;sensor_type;location;lat;lon;timestamp;P1;durP1;ratioP1;P2;durP2;ratioP2
5539;SDS011;2792;52.452;9.752;2024-03-08T00:01:41;22.67;;;11.50;;
5539;SDS011;2792;52.452;9.752;2024-03-08T00:04:10;20.03;;;11.63;;
5539;SDS011;2792;52.452;9.752;2024-03-08T00:06:36;18.00;;;10.80;;
5539;SDS011;2792;52.452;9.752;2024-03-08T00:09:04;22.07;;;11.03;;
5539;SDS011;2792;52.452;9.752;2024-03-08T00:11:32;16.60;;;11.20;;
5539;SDS011;2792;52.452;9.752;2024-03-08T00:13:59;22.37;;;12.10;;
5539;SDS011;2792;52.452;9.752;2024-03-08T00:16:26;22.03;;;11.83;;
5539;SDS011;2792;52.452;9.752;2024-03-08T00:18:53;22.00;;;11.70;;
5539;SDS011;2792;52.452;9.752;2024-03-08T00:21:20;22.50;;;10.87;;
5539;SDS011;2792;52.452;9.752;2024-03-08T00:23:49;24.83;;;12.13;;
5539;SDS011;2792;52.452;9.752;2024-03-08T00:26:17;18.27;;;12.20;;
5539;SDS011;2792;52.452;9.752;2024-03-08T00:28:44;16.97;;;11.10;;
5539;SDS011;2792;52.452;9.752;2024-03-08T00:31:10;18.23;;;11.50;;
5539;SDS011;2792;52.452;9.752;2024-03-08T00:33:37;22.27;;;11.90;;
5539;SDS011;2792;52.452;9.752;2024-03-08T00:36:04;18.67;;;10.60;;
5539;SDS011;2792;52.452;9.752;2024-03-08T00:38:32;18.77;;;11.73;;
5539;SDS011;2792;52.452;9.752;2024-03-08T00:40:59;19.97;;;12.03;;
5539;SDS011;2792;52.452;9.752;2024-03-08T00:43:28;22.20;;;12.80;;
5539;SDS011;2792;52.452;9.752;2024-03-08T00:45:55;19.60;;;11.40;;
5539;SDS011;2792;52.452;9.752;2024-03-08T00:48:22;21.00;;;12.73;;
5539;SDS011;2792;52.452;9.752;2024-03-08T00:50:49;20.87;;;12.30;;
5539;SDS011;2792;52.452;9.752;2024-03-08T00:53:15;20.83;;;12.70;;
5539;SDS011;2792;52.452;9.752;2024-03-08T00:55:42;19.97;;;12.27;;
5539;SDS011;2792;52.452;9.752;2024-03-08T00:58:11;25.33;;;12.63;;
5539;SDS011;2792;52.452;9.752;2024-03-08T01:00:39;24.27;;;12.87;;
5539;SDS011;2792;52.452;9.752;2024-03-08T01:03:05;22.27;;;12.30;;
5539;SDS011;2792;52.452;9.752;2024-03-08T01:05:32;23.83;;;12.27;;
5539;SDS011;2792;52.452;9.752;2024-03-08T01:07:58;24.42;;;12.80;;
5539;SDS011;2792;52.452;9.752;2024-03-08T01:10:25;21.90;;;12.90;;
5539;SDS011;2792;52.452;9.752;2024-03-08T01:12:52;21.20;;;12.40;;
5539;SDS011;2792;52.452;9.752;2024-03-08T01:15:19;23.00;;;11.80;;
5539;SDS011;2792;52.452;9.752;2024-03-08T01:17:47;17.83;;;10.60;;
5539;SDS011;2792;52.452;9.752;2024-03-08T01:20:14;21.83;;;13.00;;
5539;SDS011;2792;52.452;9.752;2024-03-08T01:22:40;26.73;;;13.13;;
5539;SDS011;2792;52.452;9.752;2024-03-08T01:25:07;23.10;;;12.57;;
5539;SDS011;2792;52.452;9.752;2024-03-08T01:27:35;25.70;;;13.32;;
5539;SDS011;2792;52.452;9.752;2024-03-08T01:30:02;21.40;;;12.57;;
5539;SDS011;2792;52.452;9.752;2024-03-08T01:32:29;25.53;;;13.73;;
5539;SDS011;2792;52.452;9.752;2024-03-08T01:34:57;26.07;;;13.33;;
5539;SDS011;2792;52.452;9.752;2024-03-08T01:37:23;24.07;;;12.70;;
5539;SDS011;2792;52.452;9.752;2024-03-08T01:39:50;21.40;;;12.50;;
5539;SDS011;2792;52.452;9.752;2024-03-08T01:42:17;22.00;;;12.60;;
5539;SDS011;2792;52.452;9.752;2024-03-08T01:44:43;25.70;;;12.60;;
5539;SDS011;2792;52.452;9.752;2024-03-08T01:47:10;24.10;;;12.60;;
5539;SDS011;2792;52.452;9.752;2024-03-08T01:49:37;25.77;;;12.70;;
5539;SDS011;2792;52.452;9.752;2024-03-08T01:52:05;24.53;;;13.20;;
5539;SDS011;2792;52.452;9.752;2024-03-08T01:54:32;22.80;;;12.80;;
5539;SDS011;2792;52.452;9.752;2024-03-08T01:56:58;22.37;;;12.47;;
5539;SDS011;2792;52.452;9.752;2024-03-08T01:59:25;24.03;;;13.47;;
5539;SDS011;2792;52.452;9.752;2024-03-08T02:01:52;22.83;;;12.57;;
5539;SDS011;2792;52.452;9.752;2024-03-08T02:04:21;22.93;;;12.80;;
5539;SDS011;2792;52.452;9.752;2024-03-08T02:06:49;20.30;;;12.80;;
5539;SDS011;2792;52.452;9.752;2024-03-08T02:09:18;22.73;;;12.60;;
5539;SDS011;2792;52.452;9.752;2024-03-08T02:11:44;25.60;;;14.10;;
5539;SDS011;2792;52.452;9.752;2024-03-08T02:14:11;28.03;;;11.67;;
5539;SDS011;2792;52.452;9.752;2024-03-08T02:16:37;18.33;;;11.23;;
5539;SDS011;2792;52.452;9.752;2024-03-08T02:19:04;19.80;;;11.43;;
5539;SDS011;2792;52.452;9.752;2024-03-08T02:21:36;20.80;;;12.20;;
5539;SDS011;2792;52.452;9.752;2024-03-08T02:24:03;22.70;;;13.03;;
5539;SDS011;2792;52.452;9.752;2024-03-08T02:26:30;22.90;;;13.10;;
5539;SDS011;2792;52.452;9.752;2024-03-08T02:28:56;22.43;;;11.70;;
5539;SDS011;2792;52.452;9.752;2024-03-08T02:31:23;22.10;;;12.60;;
5539;SDS011;2792;52.452;9.752;2024-03-08T02:33:50;25.87;;;12.63;;
5539;SDS011;2792;52.452;9.752;2024-03-08T02:36:16;20.03;;;11.87;;
5539;SDS011;2792;52.452;9.752;2024-03-08T02:38:44;21.13;;;11.20;;
5539;SDS011;2792;52.452;9.752;2024-03-08T02:41:10;22.50;;;11.20;;
5539;SDS011;2792;52.452;9.752;2024-03-08T02:43:37;20.93;;;11.40;;
5539;SDS011;2792;52.452;9.752;2024-03-08T02:46:03;25.37;;;13.40;;
5539;SDS011;2792;52.452;9.752;2024-03-08T02:48:31;22.85;;;12.23;;
5539;SDS011;2792;52.452;9.752;2024-03-08T02:50:57;23.03;;;13.20;;
5539;SDS011;2792;52.452;9.752;2024-03-08T02:53:24;19.13;;;11.93;;
5539;SDS011;2792;52.452;9.752;2024-03-08T02:55:52;22.55;;;12.18;;
5539;SDS011;2792;52.452;9.752;2024-03-08T02:58:18;22.90;;;11.83;;
5539;SDS011;2792;52.452;9.752;2024-03-08T03:00:44;21.25;;;12.35;;
5539;SDS011;2792;52.452;9.752;2024-03-08T03:03:11;24.50;;;12.77;;
5539;SDS011;2792;52.452;9.752;2024-03-08T03:05:37;18.20;;;11.30;;
5539;SDS011;2792;52.452;9.752;2024-03-08T03:08:06;20.75;;;12.30;;
5539;SDS011;2792;52.452;9.752;2024-03-08T03:10:33;21.07;;;12.23;;
5539;SDS011;2792;52.452;9.752;2024-03-08T03:13:02;22.27;;;12.15;;
5539;SDS011;2792;52.452;9.752;2024-03-08T03:15:29;23.40;;;11.83;;
5539;SDS011;2792;52.452;9.752;2024-03-08T03:17:56;21.50;;;12.67;;
5539;SDS011;2792;52.452;9.752;2024-03-08T03:20:22;19.25;;;10.27;;
5539;SDS011;2792;52.452;9.752;2024-03-08T03:22:51;17.95;;;11.55;;
5539;SDS011;2792;52.452;9.752;2024-03-08T03:25:18;22.88;;;12.25;;
5539;SDS011;2792;52.452;9.752;2024-03-08T03:27:50;20.65;;;11.90;;
5539;SDS011;2792;52.452;9.752;2024-03-08T03:30:18;22.70;;;11.97;;
5539;SDS011;2792;52.452;9.752;2024-03-08T03:32:47;22.80;;;13.80;;
5539;SDS011;2792;52.452;9.752;2024-03-08T03:35:16;22.50;;;12.90;;
5539;SDS011;2792;52.452;9.752;2024-03-08T03:37:43;22.88;;;13.60;;
5539;SDS011;2792;52.452;9.752;2024-03-08T03:40:16;22.60;;;12.83;;
5539;SDS011;2792;52.452;9.752;2024-03-08T03:42:43;20.93;;;12.00;;
5539;SDS011;2792;52.452;9.752;2024-03-08T03:45:10;23.33;;;12.95;;
5539;SDS011;2792;52.452;9.752;2024-03-08T03:47:42;26.75;;;13.15;;
5539;SDS011;2792;52.452;9.752;2024-03-08T03:50:09;23.80;;;11.93;;
5539;SDS011;2792;52.452;9.752;2024-03-08T03:52:35;22.23;;;12.63;;
5539;SDS011;2792;52.452;9.752;2024-03-08T03:55:02;22.30;;;12.38;;
5539;SDS011;2792;52.452;9.752;2024-03-08T03:57:29;23.42;;;12.70;;
5539;SDS011;2792;52.452;9.752;2024-03-08T03:59:56;23.92;;;12.50;;
5539;SDS011;2792;52.452;9.752;2024-03-08T04:02:23;23.97;;;12.37;;
5539;SDS011;2792;52.452;9.752;2024-03-08T04:04:52;19.38;;;12.70;;
5539;SDS011;2792;52.452;9.752;2024-03-08T04:07:19;20.15;;;12.07;;
5539;SDS011;2792;52.452;9.752;2024-03-08T04:09:46;21.92;;;13.55;;
5539;SDS011;2792;52.452;9.752;2024-03-08T04:12:12;23.63;;;12.82;;
5539;SDS011;2792;52.452;9.752;2024-03-08T04:14:41;22.55;;;12.93;;
5539;SDS011;2792;52.452;9.752;2024-03-08T04:17:08;22.23;;;11.80;;
5539;SDS011;2792;52.452;9.752;2024-03-08T04:19:36;27.10;;;14.40;;
5539;SDS011;2792;52.452;9.752;2024-03-08T04:22:05;22.83;;;13.40;;
5539;SDS011;2792;52.452;9.752;2024-03-08T04:24:32;26.48;;;14.02;;
5539;SDS011;2792;52.452;9.752;2024-03-08T04:26:59;28.70;;;13.73;;
5539;SDS011;2792;52.452;9.752;2024-03-08T04:29:25;22.83;;;13.40;;
5539;SDS011;2792;52.452;9.752;2024-03-08T04:31:52;24.17;;;13.53;;
5539;SDS011;2792;52.452;9.752;2024-03-08T04:34:19;28.65;;;13.73;;
5539;SDS011;2792;52.452;9.752;2024-03-08T04:36:46;26.40;;;12.90;;
5539;SDS011;2792;52.452;9.752;2024-03-08T04:39:14;22.60;;;13.63;;
5539;SDS011;2792;52.452;9.752;2024-03-08T04:41:40;28.93;;;15.40;;
5539;SDS011;2792;52.452;9.752;2024-03-08T04:44:08;26.33;;;15.23;;
5539;SDS011;2792;52.452;9.752;2024-03-08T04:46:35;30.37;;;13.40;;
5539;SDS011;2792;52.452;9.752;2024-03-08T04:49:01;29.58;;;14.27;;
5539;SDS011;2792;52.452;9.752;2024-03-08T04:51:28;28.80;;;14.18;;
5539;SDS011;2792;52.452;9.752;2024-03-08T04:53:54;31.40;;;14.40;;
5539;SDS011;2792;52.452;9.752;2024-03-08T04:56:23;27.80;;;13.75;;
5539;SDS011;2792;52.452;9.752;2024-03-08T04:58:50;25.17;;;14.00;;
5539;SDS011;2792;52.452;9.752;2024-03-08T05:01:17;32.07;;;14.80;;
5539;SDS011;2792;52.452;9.752;2024-03-08T05:03:43;22.40;;;13.53;;
5539;SDS011;2792;52.452;9.752;2024-03-08T05:06:10;25.00;;;13.10;;
5539;SDS011;2792;52.452;9.752;2024-03-08T05:08:37;24.33;;;13.45;;
5539;SDS011;2792;52.452;9.752;2024-03-08T05:11:03;27.77;;;13.60;;
5539;SDS011;2792;52.452;9.752;2024-03-08T05:13:33;24.83;;;13.43;;
5539;SDS011;2792;52.452;9.752;2024-03-08T05:16:00;28.67;;;13.60;;
5539;SDS011;2792;52.452;9.752;2024-03-08T05:18:27;24.73;;;13.83;;
5539;SDS011;2792;52.452;9.752;2024-03-08T05:20:54;23.00;;;13.30;;
5539;SDS011;2792;52.452;9.752;2024-03-08T05:23:20;24.07;;;13.87;;
5539;SDS011;2792;52.452;9.752;2024-03-08T05:25:47;26.57;;;15.03;;
5539;SDS011;2792;52.452;9.752;2024-03-08T05:28:14;26.43;;;14.70;;
5539;SDS011;2792;52.452;9.752;2024-03-08T05:30:42;26.27;;;15.20;;
5539;SDS011;2792;52.452;9.752;2024-03-08T05:33:08;24.60;;;13.90;;
5539;SDS011;2792;52.452;9.752;2024-03-08T05:35:35;22.73;;;13.37;;
5539;SDS011;2792;52.452;9.752;2024-03-08T05:38:02;26.70;;;13.53;;
5539;SDS011;2792;52.452;9.752;2024-03-08T05:40:28;27.40;;;14.83;;
5539;SDS011;2792;52.452;9.752;2024-03-08T05:42:56;27.80;;;14.93;;
5539;SDS011;2792;52.452;9.752;2024-03-08T05:45:23;26.80;;;14.53;;
5539;SDS011;2792;52.452;9.752;2024-03-08T05:47:51;31.50;;;13.97;;
5539;SDS011;2792;52.452;9.752;2024-03-08T05:50:18;27.00;;;15.40;;
5539;SDS011;2792;52.452;9.752;2024-03-08T05:52:44;26.20;;;13.97;;
5539;SDS011;2792;52.452;9.752;2024-03-08T05:55:12;24.97;;;15.23;;
5539;SDS011;2792;52.452;9.752;2024-03-08T05:57:39;29.97;;;16.03;;
5539;SDS011;2792;52.452;9.752;2024-03-08T06:00:07;23.97;;;13.50;;
5539;SDS011;2792;52.452;9.752;2024-03-08T06:02:36;24.87;;;14.43;;
5539;SDS011;2792;52.452;9.752;2024-03-08T06:05:07;23.60;;;14.77;;
5539;SDS011;2792;52.452;9.752;2024-03-08T06:07:34;27.80;;;16.30;;
5539;SDS011;2792;52.452;9.752;2024-03-08T06:10:01;23.87;;;15.60;;
5539;SDS011;2792;52.452;9.752;2024-03-08T06:12:28;28.70;;;15.40;;
5539;SDS011;2792;52.452;9.752;2024-03-08T06:14:58;26.40;;;15.00;;
5539;SDS011;2792;52.452;9.752;2024-03-08T06:17:25;30.60;;;16.37;;
5539;SDS011;2792;52.452;9.752;2024-03-08T06:19:51;27.50;;;16.23;;
5539;SDS011;2792;52.452;9.752;2024-03-08T06:22:20;25.30;;;15.00;;
5539;SDS011;2792;52.452;9.752;2024-03-08T06:24:47;25.05;;;15.25;;
5539;SDS011;2792;52.452;9.752;2024-03-08T06:27:13;21.80;;;13.03;;
5539;SDS011;2792;52.452;9.752;2024-03-08T06:29:40;26.43;;;14.50;;
5539;SDS011;2792;52.452;9.752;2024-03-08T06:32:06;25.30;;;14.90;;
5539;SDS011;2792;52.452;9.752;2024-03-08T06:34:33;25.67;;;14.27;;
5539;SDS011;2792;52.452;9.752;2024-03-08T06:37:00;27.13;;;14.00;;
5539;SDS011;2792;52.452;9.752;2024-03-08T06:39:28;28.40;;;14.93;;
5539;SDS011;2792;52.452;9.752;2024-03-08T06:41:56;22.83;;;14.33;;
5539;SDS011;2792;52.452;9.752;2024-03-08T06:44:23;31.50;;;16.63;;
5539;SDS011;2792;52.452;9.752;2024-03-08T06:46:50;28.27;;;15.40;;
5539;SDS011;2792;52.452;9.752;2024-03-08T06:49:17;24.03;;;15.63;;
5539;SDS011;2792;52.452;9.752;2024-03-08T06:51:44;25.73;;;14.83;;
5539;SDS011;2792;52.452;9.752;2024-03-08T06:54:11;29.03;;;15.17;;
5539;SDS011;2792;52.452;9.752;2024-03-08T06:56:39;25.60;;;13.83;;
5539;SDS011;2792;52.452;9.752;2024-03-08T06:59:05;24.80;;;15.70;;
5539;SDS011;2792;52.452;9.752;2024-03-08T07:01:35;24.93;;;13.33;;
5539;SDS011;2792;52.452;9.752;2024-03-08T07:04:02;22.50;;;14.27;;
5539;SDS011;2792;52.452;9.752;2024-03-08T07:06:30;27.80;;;15.00;;
5539;SDS011;2792;52.452;9.752;2024-03-08T07:08:58;29.17;;;15.57;;
5539;SDS011;2792;52.452;9.752;2024-03-08T07:11:24;25.07;;;14.77;;
5539;SDS011;2792;52.452;9.752;2024-03-08T07:13:52;24.70;;;14.47;;
5539;SDS011;2792;52.452;9.752;2024-03-08T07:16:19;25.73;;;15.60;;
5539;SDS011;2792;52.452;9.752;2024-03-08T07:18:46;29.80;;;16.00;;
5539;SDS011;2792;52.452;9.752;2024-03-08T07:21:13;31.77;;;14.83;;
5539;SDS011;2792;52.452;9.752;2024-03-08T07:23:39;24.80;;;14.97;;
5539;SDS011;2792;52.452;9.752;2024-03-08T07:26:20;25.20;;;15.47;;
5539;SDS011;2792;52.452;9.752;2024-03-08T07:28:47;25.50;;;14.20;;
5539;SDS011;2792;52.452;9.752;2024-03-08T07:31:15;23.67;;;14.00;;
5539;SDS011;2792;52.452;9.752;2024-03-08T07:33:51;26.47;;;14.80;;
5539;SDS011;2792;52.452;9.752;2024-03-08T07:36:18;30.10;;;16.20;;
5539;SDS011;2792;52.452;9.752;2024-03-08T07:38:45;24.40;;;14.03;;
5539;SDS011;2792;52.452;9.752;2024-03-08T07:41:12;20.67;;;13.90;;
5539;SDS011;2792;52.452;9.752;2024-03-08T07:43:39;25.73;;;14.80;;
5539;SDS011;2792;52.452;9.752;2024-03-08T07:46:05;23.53;;;13.90;;
5539;SDS011;2792;52.452;9.752;2024-03-08T07:48:33;20.60;;;13.97;;
5539;SDS011;2792;52.452;9.752;2024-03-08T07:50:59;28.10;;;15.60;;
5539;SDS011;2792;52.452;9.752;2024-03-08T07:53:28;31.10;;;16.67;;
5539;SDS011;2792;52.452;9.752;2024-03-08T07:55:54;21.90;;;14.17;;
5539;SDS011;2792;52.452;9.752;2024-03-08T07:58:21;31.60;;;15.03;;
5539;SDS011;2792;52.452;9.752;2024-03-08T08:00:48;25.67;;;15.23;;
5539;SDS011;2792;52.452;9.752;2024-03-08T08:03:15;23.33;;;14.20;;
5539;SDS011;2792;52.452;9.752;2024-03-08T08:05:47;24.10;;;15.50;;
5539;SDS011;2792;52.452;9.752;2024-03-08T08:08:14;23.67;;;15.90;;
5539;SDS011;2792;52.452;9.752;2024-03-08T08:10:40;32.43;;;16.20;;
5539;SDS011;2792;52.452;9.752;2024-03-08T08:13:07;25.20;;;15.33;;
5539;SDS011;2792;52.452;9.752;2024-03-08T08:15:33;28.40;;;15.73;;
5539;SDS011;2792;52.452;9.752;2024-03-08T08:18:00;24.00;;;15.23;;
5539;SDS011;2792;52.452;9.752;2024-03-08T08:20:27;24.83;;;16.17;;
5539;SDS011;2792;52.452;9.752;2024-03-08T08:22:55;24.37;;;15.50;;
5539;SDS011;2792;52.452;9.752;2024-03-08T08:25:23;29.50;;;15.80;;
5539;SDS011;2792;52.452;9.752;2024-03-08T08:27:49;27.70;;;15.97;;
5539;SDS011;2792;52.452;9.752;2024-03-08T08:30:16;23.50;;;15.63;;
5539;SDS011;2792;52.452;9.752;2024-03-08T08:32:42;23.83;;;15.10;;
5539;SDS011;2792;52.452;9.752;2024-03-08T08:35:09;28.53;;;15.90;;
5539;SDS011;2792;52.452;9.752;2024-03-08T08:37:38;25.65;;;16.75;;
5539;SDS011;2792;52.452;9.752;2024-03-08T08:40:06;27.40;;;16.33;;
5539;SDS011;2792;52.452;9.752;2024-03-08T08:42:35;27.93;;;16.33;;
5539;SDS011;2792;52.452;9.752;2024-03-08T08:45:02;22.63;;;13.73;;
5539;SDS011;2792;52.452;9.752;2024-03-08T08:47:33;26.40;;;16.43;;
5539;SDS011;2792;52.452;9.752;2024-03-08T08:49:59;27.47;;;15.93;;
5539;SDS011;2792;52.452;9.752;2024-03-08T08:52:26;26.33;;;16.77;;
5539;SDS011;2792;52.452;9.752;2024-03-08T08:54:54;28.00;;;15.20;;
5539;SDS011;2792;52.452;9.752;2024-03-08T08:57:23;23.83;;;15.60;;
5539;SDS011;2792;52.452;9.752;2024-03-08T08:59:49;30.13;;;15.50;;
5539;SDS011;2792;52.452;9.752;2024-03-08T09:02:16;26.00;;;15.67;;
5539;SDS011;2792;52.452;9.752;2024-03-08T09:04:45;21.57;;;14.40;;
5539;SDS011;2792;52.452;9.752;2024-03-08T09:07:12;20.27;;;14.00;;
5539;SDS011;2792;52.452;9.752;2024-03-08T09:09:39;24.30;;;15.40;;
5539;SDS011;2792;52.452;9.752;2024-03-08T09:12:06;24.23;;;16.00;;
5539;SDS011;2792;52.452;9.752;2024-03-08T09:14:34;24.77;;;15.50;;
5539;SDS011;2792;52.452;9.752;2024-03-08T09:17:01;23.47;;;16.00;;
5539;SDS011;2792;52.452;9.752;2024-03-08T09:19:28;26.63;;;15.00;;
5539;SDS011;2792;52.452;9.752;2024-03-08T09:21:54;27.73;;;16.03;;
5539;SDS011;2792;52.452;9.752;2024-03-08T09:24:21;28.67;;;16.23;;
5539;SDS011;2792;52.452;9.752;2024-03-08T09:26:47;26.17;;;16.00;;
5539;SDS011;2792;52.452;9.752;2024-03-08T09:29:13;24.53;;;15.90;;
5539;SDS011;2792;52.452;9.752;2024-03-08T09:31:42;24.27;;;16.23;;
5539;SDS011;2792;52.452;9.752;2024-03-08T09:34:11;24.00;;;16.47;;
5539;SDS011;2792;52.452;9.752;2024-03-08T09:36:37;23.27;;;16.10;;
5539;SDS011;2792;52.452;9.752;2024-03-08T09:39:06;28.40;;;16.07;;
5539;SDS011;2792;52.452;9.752;2024-03-08T09:41:33;29.07;;;16.90;;
5539;SDS011;2792;52.452;9.752;2024-03-08T09:44:00;25.53;;;15.77;;
5539;SDS011;2792;52.452;9.752;2024-03-08T09:46:26;23.20;;;14.87;;
5539;SDS011;2792;52.452;9.752;2024-03-08T09:48:54;27.10;;;17.63;;
5539;SDS011;2792;52.452;9.752;2024-03-08T09:51:21;23.77;;;16.10;;
5539;SDS011;2792;52.452;9.752;2024-03-08T09:53:55;24.33;;;15.13;;
5539;SDS011;2792;52.452;9.752;2024-03-08T09:56:23;22.67;;;13.60;;
5539;SDS011;2792;52.452;9.752;2024-03-08T09:58:49;27.07;;;14.27;;
5539;SDS011;2792;52.452;9.752;2024-03-08T10:01:39;24.97;;;15.20;;
5539;SDS011;2792;52.452;9.752;2024-03-08T10:04:08;25.30;;;15.40;;
5539;SDS011;2792;52.452;9.752;2024-03-08T10:06:35;22.37;;;14.10;;
5539;SDS011;2792;52.452;9.752;2024-03-08T10:09:02;22.23;;;14.80;;
5539;SDS011;2792;52.452;9.752;2024-03-08T10:11:31;21.13;;;14.53;;
5539;SDS011;2792;52.452;9.752;2024-03-08T10:13:58;23.67;;;14.90;;
5539;SDS011;2792;52.452;9.752;2024-03-08T10:16:26;24.00;;;14.13;;
5539;SDS011;2792;52.452;9.752;2024-03-08T10:18:53;27.10;;;16.57;;
5539;SDS011;2792;52.452;9.752;2024-03-08T10:21:23;21.37;;;14.47;;
5539;SDS011;2792;52.452;9.752;2024-03-08T10:23:50;21.57;;;14.70;;
5539;SDS011;2792;52.452;9.752;2024-03-08T10:26:17;24.20;;;15.20;;
5539;SDS011;2792;52.452;9.752;2024-03-08T10:28:46;23.93;;;14.67;;
5539;SDS011;2792;52.452;9.752;2024-03-08T10:31:13;24.07;;;14.53;;
5539;SDS011;2792;52.452;9.752;2024-03-08T10:33:41;21.87;;;14.20;;
5539;SDS011;2792;52.452;9.752;2024-03-08T10:36:08;21.47;;;14.00;;
5539;SDS011;2792;52.452;9.752;2024-03-08T10:38:36;24.67;;;14.17;;
5539;SDS011;2792;52.452;9.752;2024-03-08T10:41:05;22.77;;;15.03;;
5539;SDS011;2792;52.452;9.752;2024-03-08T10:43:33;19.93;;;13.80;;
5539;SDS011;2792;52.452;9.752;2024-03-08T10:46:13;23.07;;;14.30;;
5539;SDS011;2792;52.452;9.752;2024-03-08T10:48:44;21.83;;;14.63;;
5539;SDS011;2792;52.452;9.752;2024-03-08T10:51:11;23.83;;;14.53;;
5539;SDS011;2792;52.452;9.752;2024-03-08T10:53:39;24.07;;;15.47;;
5539;SDS011;2792;52.452;9.752;2024-03-08T10:56:06;25.20;;;15.87;;
5539;SDS011;2792;52.452;9.752;2024-03-08T10:58:34;25.13;;;15.63;;
5539;SDS011;2792;52.452;9.752;2024-03-08T11:01:02;20.10;;;14.80;;
5539;SDS011;2792;52.452;9.752;2024-03-08T11:03:44;21.90;;;13.80;;
5539;SDS011;2792;52.452;9.752;2024-03-08T11:06:13;24.70;;;14.50;;
5539;SDS011;2792;52.452;9.752;2024-03-08T11:08:43;24.50;;;16.07;;
5539;SDS011;2792;52.452;9.752;2024-03-08T11:11:23;23.30;;;15.17;;
5539;SDS011;2792;52.452;9.752;2024-03-08T11:13:52;23.70;;;13.63;;
5539;SDS011;2792;52.452;9.752;2024-03-08T11:19:06;19.70;;;14.10;;
5539;SDS011;2792;52.452;9.752;2024-03-08T11:21:35;26.53;;;15.40;;
5539;SDS011;2792;52.452;9.752;2024-03-08T11:24:08;25.50;;;15.90;;
5539;SDS011;2792;52.452;9.752;2024-03-08T11:26:36;25.47;;;14.10;;
5539;SDS011;2792;52.452;9.752;2024-03-08T11:32:09;25.97;;;16.53;;
5539;SDS011;2792;52.452;9.752;2024-03-08T11:34:37;21.77;;;15.07;;
5539;SDS011;2792;52.452;9.752;2024-03-08T11:37:03;26.33;;;14.63;;
5539;SDS011;2792;52.452;9.752;2024-03-08T11:39:32;24.00;;;15.30;;
5539;SDS011;2792;52.452;9.752;2024-03-08T11:41:59;31.03;;;16.03;;
5539;SDS011;2792;52.452;9.752;2024-03-08T11:44:26;24.60;;;14.83;;
5539;SDS011;2792;52.452;9.752;2024-03-08T11:46:53;24.40;;;14.87;;
5539;SDS011;2792;52.452;9.752;2024-03-08T11:49:20;27.30;;;16.63;;
5539;SDS011;2792;52.452;9.752;2024-03-08T11:51:47;27.27;;;15.70;;
5539;SDS011;2792;52.452;9.752;2024-03-08T11:54:18;25.20;;;17.80;;
5539;SDS011;2792;52.452;9.752;2024-03-08T11:56:46;23.93;;;15.47;;
5539;SDS011;2792;52.452;9.752;2024-03-08T11:59:13;27.40;;;16.73;;
5539;SDS011;2792;52.452;9.752;2024-03-08T12:01:39;26.90;;;18.40;;
5539;SDS011;2792;52.452;9.752;2024-03-08T12:04:06;26.43;;;16.83;;
5539;SDS011;2792;52.452;9.752;2024-03-08T12:06:36;24.93;;;17.60;;
5539;SDS011;2792;52.452;9.752;2024-03-08T12:09:05;29.30;;;17.20;;
5539;SDS011;2792;52.452;9.752;2024-03-08T12:11:35;27.63;;;16.67;;
5539;SDS011;2792;52.452;9.752;2024-03-08T12:14:03;27.33;;;16.03;;
5539;SDS011;2792;52.452;9.752;2024-03-08T12:16:31;28.47;;;16.97;;
5539;SDS011;2792;52.452;9.752;2024-03-08T12:18:58;28.67;;;15.83;;
5539;SDS011;2792;52.452;9.752;2024-03-08T12:21:26;25.73;;;16.20;;
5539;SDS011;2792;52.452;9.752;2024-03-08T12:24:04;25.00;;;15.63;;
5539;SDS011;2792;52.452;9.752;2024-03-08T12:26:34;27.60;;;15.50;;
5539;SDS011;2792;52.452;9.752;2024-03-08T12:29:16;22.20;;;14.40;;
5539;SDS011;2792;52.452;9.752;2024-03-08T12:31:47;25.47;;;14.47;;
5539;SDS011;2792;52.452;9.752;2024-03-08T12:34:14;21.97;;;13.17;;
5539;SDS011;2792;52.452;9.752;2024-03-08T12:36:44;23.53;;;15.20;;
5539;SDS011;2792;52.452;9.752;2024-03-08T12:39:13;25.53;;;15.90;;
5539;SDS011;2792;52.452;9.752;2024-03-08T12:41:41;24.90;;;16.03;;
5539;SDS011;2792;52.452;9.752;2024-03-08T12:44:08;21.87;;;14.03;;
5539;SDS011;2792;52.452;9.752;2024-03-08T12:46:37;27.50;;;15.30;;
5539;SDS011;2792;52.452;9.752;2024-03-08T12:49:07;29.00;;;13.80;;
5539;SDS011;2792;52.452;9.752;2024-03-08T12:51:34;20.00;;;12.60;;
5539;SDS011;2792;52.452;9.752;2024-03-08T12:54:01;25.93;;;15.80;;
5539;SDS011;2792;52.452;9.752;2024-03-08T12:56:31;23.57;;;15.00;;
5539;SDS011;2792;52.452;9.752;2024-03-08T12:58:58;22.60;;;14.30;;
5539;SDS011;2792;52.452;9.752;2024-03-08T13:01:25;23.37;;;14.30;;
5539;SDS011;2792;52.452;9.752;2024-03-08T13:03:54;20.13;;;13.40;;
5539;SDS011;2792;52.452;9.752;2024-03-08T13:06:21;24.10;;;16.67;;
5539;SDS011;2792;52.452;9.752;2024-03-08T13:08:49;21.70;;;13.90;;
5539;SDS011;2792;52.452;9.752;2024-03-08T13:11:16;22.70;;;13.67;;
5539;SDS011;2792;52.452;9.752;2024-03-08T13:13:44;23.10;;;14.80;;
5539;SDS011;2792;52.452;9.752;2024-03-08T13:16:10;24.23;;;14.60;;
5539;SDS011;2792;52.452;9.752;2024-03-08T13:18:39;19.53;;;13.67;;
5539;SDS011;2792;52.452;9.752;2024-03-08T13:21:08;20.97;;;14.10;;
5539;SDS011;2792;52.452;9.752;2024-03-08T13:23:35;22.60;;;13.83;;
5539;SDS011;2792;52.452;9.752;2024-03-08T13:26:05;25.23;;;15.13;;
5539;SDS011;2792;52.452;9.752;2024-03-08T13:28:32;30.53;;;16.23;;
5539;SDS011;2792;52.452;9.752;2024-03-08T13:31:02;24.93;;;16.00;;
5539;SDS011;2792;52.452;9.752;2024-03-08T13:33:31;22.87;;;14.90;;
5539;SDS011;2792;52.452;9.752;2024-03-08T13:36:00;21.53;;;13.67;;
5539;SDS011;2792;52.452;9.752;2024-03-08T13:38:29;16.40;;;12.20;;
5539;SDS011;2792;52.452;9.752;2024-03-08T13:40:57;20.80;;;14.20;;
5539;SDS011;2792;52.452;9.752;2024-03-08T13:43:24;20.07;;;13.13;;
5539;SDS011;2792;52.452;9.752;2024-03-08T13:45:53;18.40;;;12.00;;
5539;SDS011;2792;52.452;9.752;2024-03-08T13:48:20;20.60;;;13.90;;
5539;SDS011;2792;52.452;9.752;2024-03-08T13:50:47;16.90;;;11.93;;
5539;SDS011;2792;52.452;9.752;2024-03-08T13:53:14;17.70;;;11.63;;
5539;SDS011;2792;52.452;9.752;2024-03-08T13:55:42;20.83;;;13.50;;
5539;SDS011;2792;52.452;9.752;2024-03-08T13:58:08;21.93;;;12.93;;
5539;SDS011;2792;52.452;9.752;2024-03-08T14:00:35;22.20;;;13.60;;
5539;SDS011;2792;52.452;9.752;2024-03-08T14:03:01;21.93;;;14.30;;
5539;SDS011;2792;52.452;9.752;2024-03-08T14:05:30;20.93;;;12.10;;
5539;SDS011;2792;52.452;9.752;2024-03-08T14:07:59;16.70;;;11.70;;
5539;SDS011;2792;52.452;9.752;2024-03-08T14:10:28;20.03;;;13.47;;
5539;SDS011;2792;52.452;9.752;2024-03-08T14:12:57;20.43;;;12.40;;
5539;SDS011;2792;52.452;9.752;2024-03-08T14:15:25;22.10;;;13.37;;
5539;SDS011;2792;52.452;9.752;2024-03-08T14:17:54;17.60;;;12.60;;
5539;SDS011;2792;52.452;9.752;2024-03-08T14:20:22;20.93;;;13.00;;
5539;SDS011;2792;52.452;9.752;2024-03-08T14:22:50;17.83;;;12.33;;
5539;SDS011;2792;52.452;9.752;2024-03-08T14:25:17;19.10;;;13.30;;
5539;SDS011;2792;52.452;9.752;2024-03-08T14:27:43;18.80;;;13.87;;
5539;SDS011;2792;52.452;9.752;2024-03-08T14:30:11;19.93;;;13.13;;
5539;SDS011;2792;52.452;9.752;2024-03-08T14:32:38;19.27;;;13.37;;
5539;SDS011;2792;52.452;9.752;2024-03-08T14:35:04;16.60;;;12.30;;
5539;SDS011;2792;52.452;9.752;2024-03-08T14:37:31;19.47;;;12.90;;
5539;SDS011;2792;52.452;9.752;2024-03-08T14:39:58;22.70;;;13.63;;
5539;SDS011;2792;52.452;9.752;2024-03-08T14:42:24;25.03;;;14.40;;
5539;SDS011;2792;52.452;9.752;2024-03-08T14:44:51;20.07;;;13.20;;
5539;SDS011;2792;52.452;9.752;2024-03-08T14:47:20;22.03;;;14.53;;
5539;SDS011;2792;52.452;9.752;2024-03-08T14:49:47;19.17;;;13.03;;
5539;SDS011;2792;52.452;9.752;2024-03-08T14:52:14;20.77;;;14.13;;
5539;SDS011;2792;52.452;9.752;2024-03-08T14:54:53;22.37;;;15.17;;
5539;SDS011;2792;52.452;9.752;2024-03-08T14:57:19;26.13;;;16.33;;